createdAt,value
2022-11-02T00:00:00.804Z,510.80
2022-11-02T00:00:10.805Z,510.76
2022-11-02T00:00:20.807Z,510.78
2022-11-02T00:00:30.810Z,510.77
2022-11-02T00:00:40.808Z,510.86
2022-11-02T00:00:50.810Z,510.88
2022-11-02T00:01:00.841Z,510.89
2022-11-02T00:01:10.842Z,510.91
2022-11-02T00:01:20.876Z,510.99
2022-11-02T00:01:30.851Z,511.00
2022-11-02T00:01:40.882Z,510.96
2022-11-02T00:01:50.882Z,510.90
2022-11-02T00:02:01.034Z,510.84
2022-11-02T00:02:10.897Z,511.06
2022-11-02T00:02:20.885Z,511.08
2022-11-02T00:02:30.857Z,511.01
2022-11-02T00:02:40.896Z,510.99
2022-11-02T00:02:50.911Z,511.00
2022-11-02T00:03:00.933Z,511.11
2022-11-02T00:03:10.934Z,511.05
2022-11-02T00:03:20.825Z,510.96
2022-11-02T00:03:30.811Z,510.89
2022-11-02T00:03:40.810Z,510.72
2022-11-02T00:03:50.830Z,510.70
2022-11-02T00:04:00.839Z,510.63
2022-11-02T00:04:10.828Z,510.70
2022-11-02T00:04:20.842Z,510.72
2022-11-02T00:04:30.829Z,510.68
2022-11-02T00:04:40.832Z,510.68
2022-11-02T00:04:50.833Z,510.55
2022-11-02T00:05:00.836Z,510.57
2022-11-02T00:05:10.838Z,510.51
2022-11-02T00:05:20.834Z,510.49
2022-11-02T00:05:30.834Z,510.47
2022-11-02T00:05:40.839Z,510.44
2022-11-02T00:05:50.842Z,510.36
2022-11-02T00:06:00.845Z,510.51
2022-11-02T00:06:10.841Z,510.46
2022-11-02T00:06:20.840Z,510.35
2022-11-02T00:06:30.846Z,510.49
2022-11-02T00:06:40.840Z,510.37
2022-11-02T00:06:50.843Z,510.41
2022-11-02T00:07:00.845Z,510.35
2022-11-02T00:07:10.847Z,510.40
2022-11-02T00:07:20.850Z,510.30
2022-11-02T00:07:30.849Z,510.29
2022-11-02T00:07:40.850Z,510.07
2022-11-02T00:07:50.850Z,510.26
2022-11-02T00:08:00.853Z,510.27
2022-11-02T00:08:10.855Z,510.28
2022-11-02T00:08:20.854Z,510.27
2022-11-02T00:08:30.857Z,510.30
2022-11-02T00:08:40.858Z,510.33
2022-11-02T00:08:50.860Z,510.35
2022-11-02T00:09:00.841Z,510.33
2022-11-02T00:09:10.859Z,510.34
2022-11-02T00:09:20.861Z,510.39
2022-11-02T00:09:30.860Z,510.46
2022-11-02T00:09:40.860Z,510.58
2022-11-02T00:09:50.863Z,510.50
2022-11-02T00:10:00.863Z,510.54
2022-11-02T00:10:10.864Z,510.66
2022-11-02T00:10:20.866Z,510.36
2022-11-02T00:10:30.867Z,510.51
2022-11-02T00:10:40.868Z,510.71
2022-11-02T00:10:50.874Z,510.79
2022-11-02T00:11:00.869Z,510.59
2022-11-02T00:11:10.870Z,510.62
2022-11-02T00:11:20.872Z,510.68
2022-11-02T00:11:30.871Z,510.63
2022-11-02T00:11:40.871Z,510.59
2022-11-02T00:11:50.872Z,510.67
2022-11-02T00:12:00.873Z,510.69
2022-11-02T00:12:10.874Z,510.68
2022-11-02T00:12:20.880Z,510.68
2022-11-02T00:12:30.877Z,510.62
2022-11-02T00:12:40.876Z,510.55
2022-11-02T00:12:50.877Z,510.86
2022-11-02T00:13:01.094Z,510.73
2022-11-02T00:13:10.884Z,510.65
2022-11-02T00:13:20.882Z,510.62
2022-11-02T00:13:30.881Z,510.73
2022-11-02T00:13:40.884Z,510.63
2022-11-02T00:13:50.883Z,510.60
2022-11-02T00:14:00.883Z,510.59
2022-11-02T00:14:10.886Z,510.59
2022-11-02T00:14:20.868Z,510.67
2022-11-02T00:14:30.886Z,510.71
2022-11-02T00:14:40.890Z,510.80
2022-11-02T00:14:50.885Z,510.76
2022-11-02T00:15:00.887Z,510.72
2022-11-02T00:15:10.890Z,510.68
2022-11-02T00:15:20.893Z,510.68
2022-11-02T00:15:30.890Z,510.70
2022-11-02T00:15:40.895Z,510.65
2022-11-02T00:15:50.894Z,510.66
2022-11-02T00:16:00.896Z,510.68
2022-11-02T00:16:10.896Z,510.80
2022-11-02T00:16:20.896Z,510.72
2022-11-02T00:16:30.898Z,510.77
2022-11-02T00:16:40.894Z,510.85
2022-11-02T00:16:50.897Z,510.82
2022-11-02T00:17:00.899Z,510.75
2022-11-02T00:17:10.905Z,510.79
2022-11-02T00:17:20.905Z,510.69
2022-11-02T00:17:30.904Z,510.72
2022-11-02T00:17:40.905Z,510.77
2022-11-02T00:17:50.972Z,510.73
2022-11-02T00:18:00.960Z,510.82
2022-11-02T00:18:10.911Z,510.77
2022-11-02T00:18:20.911Z,510.82
2022-11-02T00:18:30.912Z,510.93
2022-11-02T00:18:40.914Z,510.88
2022-11-02T00:18:50.914Z,510.89
2022-11-02T00:19:00.913Z,510.90
2022-11-02T00:19:10.916Z,510.99
2022-11-02T00:19:20.917Z,511.16
2022-11-02T00:19:30.918Z,510.96
2022-11-02T00:19:40.921Z,510.99
2022-11-02T00:19:50.919Z,511.19
2022-11-02T00:20:00.922Z,511.16
2022-11-02T00:20:10.923Z,511.18
2022-11-02T00:20:20.928Z,511.09
2022-11-02T00:20:30.922Z,511.12
2022-11-02T00:20:40.926Z,511.08
2022-11-02T00:20:50.922Z,511.11
2022-11-02T00:21:00.926Z,510.98
2022-11-02T00:21:10.926Z,511.10
2022-11-02T00:21:20.927Z,511.03
2022-11-02T00:21:30.931Z,511.17
2022-11-02T00:21:40.928Z,511.14
2022-11-02T00:21:50.929Z,511.31
2022-11-02T00:22:00.931Z,511.32
2022-11-02T00:22:10.930Z,511.33
2022-11-02T00:22:20.933Z,511.29
2022-11-02T00:22:30.931Z,511.42
2022-11-02T00:22:40.933Z,511.38
2022-11-02T00:22:50.935Z,511.46
2022-11-02T00:23:01.029Z,511.66
2022-11-02T00:23:10.973Z,511.66
2022-11-02T00:23:20.937Z,511.56
2022-11-02T00:23:30.938Z,511.79
2022-11-02T00:23:40.938Z,511.79
2022-11-02T00:23:50.939Z,511.69
2022-11-02T00:24:00.940Z,511.67
2022-11-02T00:24:10.945Z,511.66
2022-11-02T00:24:20.941Z,511.60
2022-11-02T00:24:30.944Z,511.59
2022-11-02T00:24:40.942Z,511.61
2022-11-02T00:24:50.945Z,511.66
2022-11-02T00:25:00.946Z,511.61
2022-11-02T00:25:10.947Z,511.63
2022-11-02T00:25:20.949Z,511.59
2022-11-02T00:25:30.952Z,511.60
2022-11-02T00:25:40.950Z,511.45
2022-11-02T00:25:50.950Z,511.45
2022-11-02T00:26:02.526Z,511.50
2022-11-02T00:26:10.954Z,511.43
2022-11-02T00:26:20.954Z,511.36
2022-11-02T00:26:30.957Z,511.34
2022-11-02T00:26:40.954Z,511.15
2022-11-02T00:26:50.956Z,511.29
2022-11-02T00:27:00.957Z,511.45
2022-11-02T00:27:10.957Z,511.35
2022-11-02T00:27:20.963Z,511.53
2022-11-02T00:27:30.959Z,511.40
2022-11-02T00:27:40.959Z,511.38
2022-11-02T00:27:50.968Z,511.41
2022-11-02T00:28:00.961Z,511.52
2022-11-02T00:28:10.962Z,511.34
2022-11-02T00:28:20.966Z,511.33
2022-11-02T00:28:30.963Z,511.36
2022-11-02T00:28:40.963Z,511.43
2022-11-02T00:28:50.968Z,511.41
2022-11-02T00:29:00.966Z,511.52
2022-11-02T00:29:10.965Z,511.52
2022-11-02T00:29:20.966Z,511.54
2022-11-02T00:29:33.842Z,511.59
2022-11-02T00:29:40.969Z,511.53
2022-11-02T00:29:50.970Z,511.63
2022-11-02T00:30:00.972Z,511.71
2022-11-02T00:30:10.972Z,511.67
2022-11-02T00:30:20.975Z,511.66
2022-11-02T00:30:30.975Z,511.90
2022-11-02T00:30:40.976Z,511.79
2022-11-02T00:30:50.976Z,511.79
2022-11-02T00:31:00.978Z,511.77
2022-11-02T00:31:10.978Z,511.70
2022-11-02T00:31:20.982Z,511.77
2022-11-02T00:31:30.962Z,511.66
2022-11-02T00:31:40.982Z,511.75
2022-11-02T00:31:50.983Z,511.74
2022-11-02T00:32:00.985Z,511.72
2022-11-02T00:32:10.985Z,511.78
2022-11-02T00:32:20.995Z,511.97
2022-11-02T00:32:30.993Z,511.81
2022-11-02T00:32:40.989Z,511.93
2022-11-02T00:32:50.989Z,511.76
2022-11-02T00:33:01.190Z,511.82
2022-11-02T00:33:11.071Z,511.91
2022-11-02T00:33:20.992Z,511.86
2022-11-02T00:33:30.990Z,511.79
2022-11-02T00:33:40.990Z,511.89
2022-11-02T00:33:50.993Z,511.78
2022-11-02T00:34:01.006Z,511.90
2022-11-02T00:34:10.993Z,511.90
2022-11-02T00:34:21.001Z,511.82
2022-11-02T00:34:31.001Z,511.87
2022-11-02T00:34:40.996Z,511.78
2022-11-02T00:34:50.997Z,511.96
2022-11-02T00:35:00.998Z,511.92
2022-11-02T00:35:11.003Z,511.81
2022-11-02T00:35:21.001Z,511.91
2022-11-02T00:35:31.005Z,511.98
2022-11-02T00:35:41.003Z,511.80
2022-11-02T00:35:51.003Z,511.97
2022-11-02T00:36:01.007Z,512.07
2022-11-02T00:36:11.006Z,511.97
2022-11-02T00:36:20.989Z,511.89
2022-11-02T00:36:31.007Z,512.20
2022-11-02T00:36:41.019Z,512.24
2022-11-02T00:36:55.323Z,512.20
2022-11-02T00:37:01.009Z,512.27
2022-11-02T00:37:11.008Z,512.21
2022-11-02T00:37:21.082Z,512.32
2022-11-02T00:37:31.009Z,512.26
2022-11-02T00:37:41.011Z,512.25
2022-11-02T00:37:51.015Z,512.35
2022-11-02T00:38:01.217Z,512.34
2022-11-02T00:38:11.014Z,512.47
2022-11-02T00:38:21.015Z,512.38
2022-11-02T00:38:31.018Z,512.35
2022-11-02T00:38:41.019Z,512.31
2022-11-02T00:38:51.020Z,512.39
2022-11-02T00:39:01.023Z,512.54
2022-11-02T00:39:11.020Z,512.52
2022-11-02T00:39:21.022Z,512.51
2022-11-02T00:39:31.048Z,512.62
2022-11-02T00:39:41.025Z,512.67
2022-11-02T00:39:51.027Z,512.61
2022-11-02T00:40:01.028Z,512.58
2022-11-02T00:40:11.027Z,512.55
2022-11-02T00:40:21.030Z,512.69
2022-11-02T00:40:31.035Z,512.63
2022-11-02T00:40:41.029Z,512.67
2022-11-02T00:40:51.032Z,512.88
2022-11-02T00:41:01.032Z,512.78
2022-11-02T00:41:11.033Z,512.82
2022-11-02T00:41:21.038Z,512.88
2022-11-02T00:41:31.037Z,513.03
2022-11-02T00:41:41.037Z,512.92
2022-11-02T00:41:51.035Z,512.94
2022-11-02T00:42:01.035Z,512.89
2022-11-02T00:42:11.037Z,512.93
2022-11-02T00:42:21.041Z,512.98
2022-11-02T00:42:31.039Z,513.07
2022-11-02T00:42:41.039Z,512.95
2022-11-02T00:42:51.042Z,512.98
2022-11-02T00:43:01.043Z,512.94
2022-11-02T00:43:11.043Z,512.81
2022-11-02T00:43:21.050Z,512.76
2022-11-02T00:43:31.046Z,512.82
2022-11-02T00:43:41.045Z,512.97
2022-11-02T00:43:51.052Z,512.87
2022-11-02T00:44:01.050Z,512.90
2022-11-02T00:44:11.053Z,512.95
2022-11-02T00:44:21.054Z,512.70
2022-11-02T00:44:31.054Z,512.74
2022-11-02T00:44:41.054Z,512.73
2022-11-02T00:44:51.056Z,512.64
2022-11-02T00:45:01.055Z,512.62
2022-11-02T00:45:11.057Z,512.74
2022-11-02T00:45:21.056Z,512.85
2022-11-02T00:45:31.042Z,512.85
2022-11-02T00:45:41.042Z,512.85
2022-11-02T00:45:51.062Z,512.97
2022-11-02T00:46:01.061Z,512.92
2022-11-02T00:46:11.072Z,512.79
2022-11-02T00:46:21.069Z,512.83
2022-11-02T00:46:31.065Z,512.81
2022-11-02T00:46:41.065Z,512.64
2022-11-02T00:46:51.065Z,512.92
2022-11-02T00:47:01.067Z,513.04
2022-11-02T00:47:11.068Z,512.98
2022-11-02T00:47:21.073Z,512.86
2022-11-02T00:47:31.070Z,512.92
2022-11-02T00:47:41.070Z,512.86
2022-11-02T00:47:51.073Z,512.95
2022-11-02T00:48:01.259Z,512.92
2022-11-02T00:48:11.073Z,512.87
2022-11-02T00:48:21.075Z,512.84
2022-11-02T00:48:31.107Z,512.73
2022-11-02T00:48:41.077Z,512.80
2022-11-02T00:48:51.079Z,512.88
2022-11-02T00:49:01.079Z,512.78
2022-11-02T00:49:11.081Z,512.71
2022-11-02T00:49:21.080Z,512.77
2022-11-02T00:49:31.080Z,512.69
2022-11-02T00:49:41.083Z,512.77
2022-11-02T00:49:51.086Z,512.84
2022-11-02T00:50:01.087Z,512.95
2022-11-02T00:50:11.087Z,512.97
2022-11-02T00:50:21.087Z,512.85
2022-11-02T00:50:31.087Z,512.83
2022-11-02T00:50:41.088Z,512.73
2022-11-02T00:50:51.093Z,512.86
2022-11-02T00:51:01.090Z,513.10
2022-11-02T00:51:11.091Z,512.96
2022-11-02T00:51:21.091Z,512.75
2022-11-02T00:51:31.094Z,512.91
2022-11-02T00:51:41.093Z,512.92
2022-11-02T00:51:51.096Z,512.96
2022-11-02T00:52:01.094Z,512.97
2022-11-02T00:52:11.096Z,512.92
2022-11-02T00:52:21.141Z,513.02
2022-11-02T00:52:31.100Z,513.05
2022-11-02T00:52:41.082Z,512.97
2022-11-02T00:52:51.110Z,513.07
2022-11-02T00:53:01.100Z,513.02
2022-11-02T00:53:11.101Z,513.15
2022-11-02T00:53:21.102Z,513.04
2022-11-02T00:53:31.104Z,513.12
2022-11-02T00:53:41.105Z,513.10
2022-11-02T00:53:51.107Z,513.08
2022-11-02T00:54:01.105Z,513.12
2022-11-02T00:54:11.105Z,512.99
2022-11-02T00:54:25.859Z,512.95
2022-11-02T00:54:32.108Z,513.05
2022-11-02T00:54:41.108Z,513.13
2022-11-02T00:54:51.108Z,513.11
2022-11-02T00:55:01.108Z,513.16
2022-11-02T00:55:11.111Z,513.20
2022-11-02T00:55:21.110Z,513.10
2022-11-02T00:55:31.110Z,513.10
2022-11-02T00:55:41.111Z,513.21
2022-11-02T00:55:51.117Z,513.18
2022-11-02T00:56:01.113Z,513.30
2022-11-02T00:56:11.115Z,513.21
2022-11-02T00:56:21.114Z,513.26
2022-11-02T00:56:31.114Z,513.32
2022-11-02T00:56:41.116Z,513.13
2022-11-02T00:56:51.221Z,513.43
2022-11-02T00:57:11.125Z,513.20
2022-11-02T00:57:21.122Z,513.40
2022-11-02T00:57:31.123Z,513.37
2022-11-02T00:57:41.122Z,513.34
2022-11-02T00:57:51.123Z,513.35
2022-11-02T00:58:01.281Z,513.29
2022-11-02T00:58:11.125Z,513.53
2022-11-02T00:58:21.123Z,513.54
2022-11-02T00:58:31.125Z,513.43
2022-11-02T00:58:41.124Z,513.41
2022-11-02T00:58:51.125Z,513.46
2022-11-02T00:59:01.127Z,513.52
2022-11-02T00:59:11.130Z,513.47
2022-11-02T00:59:21.128Z,513.52
2022-11-02T00:59:31.129Z,513.44
2022-11-02T00:59:41.140Z,513.65
2022-11-02T00:59:51.133Z,513.72
2022-11-02T01:00:01.134Z,513.65
2022-11-02T01:00:11.137Z,513.59
2022-11-02T01:00:21.151Z,513.62
2022-11-02T01:00:31.163Z,513.63
2022-11-02T01:00:41.140Z,513.69
2022-11-02T01:00:51.138Z,513.81
2022-11-02T01:01:01.184Z,513.72
2022-11-02T01:01:11.342Z,513.70
2022-11-02T01:01:21.266Z,513.69
2022-11-02T01:01:31.356Z,513.64
2022-11-02T01:01:41.326Z,513.93
2022-11-02T01:01:51.293Z,514.03
2022-11-02T01:02:01.251Z,513.94
2022-11-02T01:02:11.310Z,514.13
2022-11-02T01:02:21.362Z,514.03
2022-11-02T01:02:31.257Z,514.05
2022-11-02T01:02:41.292Z,513.97
2022-11-02T01:02:51.254Z,514.19
2022-11-02T01:03:01.151Z,514.15
2022-11-02T01:03:11.154Z,514.26
2022-11-02T01:03:21.168Z,514.26
2022-11-02T01:03:31.154Z,514.25
2022-11-02T01:03:41.155Z,514.22
2022-11-02T01:03:51.154Z,514.21
2022-11-02T01:04:01.157Z,514.23
2022-11-02T01:04:11.156Z,514.29
2022-11-02T01:04:21.176Z,514.22
2022-11-02T01:04:31.162Z,514.26
2022-11-02T01:04:41.160Z,514.20
2022-11-02T01:04:51.163Z,514.13
2022-11-02T01:05:01.161Z,514.34
2022-11-02T01:05:11.179Z,514.46
2022-11-02T01:05:21.165Z,514.43
2022-11-02T01:05:31.167Z,514.38
2022-11-02T01:05:41.168Z,514.41
2022-11-02T01:05:51.166Z,514.35
2022-11-02T01:06:01.167Z,514.54
2022-11-02T01:06:11.174Z,514.48
2022-11-02T01:06:21.168Z,514.48
2022-11-02T01:06:31.167Z,514.66
2022-11-02T01:06:41.170Z,514.26
2022-11-02T01:06:51.172Z,514.20
2022-11-02T01:07:01.169Z,514.76
2022-11-02T01:07:11.181Z,514.81
2022-11-02T01:07:21.185Z,514.78
2022-11-02T01:07:31.174Z,514.66
2022-11-02T01:07:41.181Z,514.53
2022-11-02T01:07:51.176Z,514.57
2022-11-02T01:08:01.253Z,514.65
2022-11-02T01:08:11.181Z,514.55
2022-11-02T01:08:21.183Z,514.52
2022-11-02T01:08:31.180Z,514.66
2022-11-02T01:08:41.181Z,514.50
2022-11-02T01:08:51.181Z,514.49
2022-11-02T01:09:01.184Z,514.74
2022-11-02T01:09:11.184Z,514.62
2022-11-02T01:09:21.184Z,514.55
2022-11-02T01:09:31.185Z,514.71
2022-11-02T01:09:41.186Z,514.82
2022-11-02T01:09:51.188Z,514.85
2022-11-02T01:10:01.190Z,514.69
2022-11-02T01:10:11.192Z,514.74
2022-11-02T01:10:21.189Z,514.86
2022-11-02T01:10:31.190Z,514.81
2022-11-02T01:10:44.096Z,514.89
2022-11-02T01:10:52.194Z,514.79
2022-11-02T01:11:01.193Z,514.89
2022-11-02T01:11:11.194Z,514.94
2022-11-02T01:11:21.199Z,514.84
2022-11-02T01:11:31.197Z,514.95
2022-11-02T01:11:41.197Z,515.01
2022-11-02T01:11:51.197Z,514.97
2022-11-02T01:12:01.200Z,515.02
2022-11-02T01:12:11.197Z,514.84
2022-11-02T01:12:21.198Z,514.84
2022-11-02T01:12:31.198Z,514.85
2022-11-02T01:12:41.201Z,514.85
2022-11-02T01:12:51.203Z,514.81
2022-11-02T01:13:01.208Z,514.78
2022-11-02T01:13:11.204Z,514.78
2022-11-02T01:13:21.204Z,514.85
2022-11-02T01:13:31.204Z,514.76
2022-11-02T01:13:41.207Z,514.73
2022-11-02T01:13:51.211Z,514.64
2022-11-02T01:14:01.208Z,514.62
2022-11-02T01:14:11.216Z,514.72
2022-11-02T01:14:21.211Z,514.64
2022-11-02T01:14:31.211Z,514.58
2022-11-02T01:14:41.213Z,514.57
2022-11-02T01:14:51.212Z,514.64
2022-11-02T01:15:01.214Z,514.71
2022-11-02T01:15:11.215Z,514.65
2022-11-02T01:15:21.216Z,514.64
2022-11-02T01:15:31.219Z,514.53
2022-11-02T01:15:41.216Z,514.58
2022-11-02T01:15:51.227Z,514.65
2022-11-02T01:16:01.220Z,514.70
2022-11-02T01:16:11.220Z,514.69
2022-11-02T01:16:21.245Z,514.55
2022-11-02T01:16:31.235Z,514.65
2022-11-02T01:16:41.260Z,514.72
2022-11-02T01:16:51.234Z,514.83
2022-11-02T01:17:01.226Z,514.86
2022-11-02T01:17:11.226Z,514.76
2022-11-02T01:17:21.254Z,514.69
2022-11-02T01:17:31.228Z,514.83
2022-11-02T01:17:41.230Z,514.88
2022-11-02T01:17:51.229Z,514.82
2022-11-02T01:18:01.502Z,514.86
2022-11-02T01:18:11.232Z,514.75
2022-11-02T01:18:21.231Z,514.97
2022-11-02T01:18:31.233Z,514.92
2022-11-02T01:18:41.233Z,514.89
2022-11-02T01:18:51.233Z,515.03
2022-11-02T01:19:01.236Z,515.06
2022-11-02T01:19:11.235Z,515.19
2022-11-02T01:19:21.238Z,515.14
2022-11-02T01:19:31.234Z,515.28
2022-11-02T01:19:41.237Z,515.28
2022-11-02T01:19:51.237Z,515.25
2022-11-02T01:20:01.242Z,515.39
2022-11-02T01:20:11.239Z,515.11
2022-11-02T01:20:21.262Z,515.11
2022-11-02T01:20:31.242Z,515.22
2022-11-02T01:20:41.247Z,515.12
2022-11-02T01:20:51.245Z,515.37
2022-11-02T01:21:01.245Z,515.28
2022-11-02T01:21:11.247Z,514.92
2022-11-02T01:21:21.247Z,515.30
2022-11-02T01:21:31.246Z,515.34
2022-11-02T01:21:41.250Z,515.30
2022-11-02T01:21:51.249Z,515.48
2022-11-02T01:22:01.249Z,515.35
2022-11-02T01:22:11.254Z,515.36
2022-11-02T01:22:21.254Z,515.35
2022-11-02T01:22:31.258Z,515.32
2022-11-02T01:22:41.255Z,515.22
2022-11-02T01:22:51.253Z,515.43
2022-11-02T01:23:01.254Z,515.46
2022-11-02T01:23:11.255Z,515.43
2022-11-02T01:23:21.256Z,515.41
2022-11-02T01:23:31.255Z,515.59
2022-11-02T01:23:41.259Z,515.42
2022-11-02T01:23:51.261Z,515.52
2022-11-02T01:24:01.260Z,515.68
2022-11-02T01:24:11.265Z,515.71
2022-11-02T01:24:21.260Z,515.70
2022-11-02T01:24:31.261Z,515.68
2022-11-02T01:24:41.262Z,515.77
2022-11-02T01:24:51.263Z,515.69
2022-11-02T01:25:01.267Z,515.57
2022-11-02T01:25:11.266Z,515.63
2022-11-02T01:25:21.267Z,515.69
2022-11-02T01:25:31.269Z,515.70
2022-11-02T01:25:41.272Z,515.87
2022-11-02T01:25:51.270Z,515.76
2022-11-02T01:26:01.272Z,515.67
2022-11-02T01:26:11.273Z,515.74
2022-11-02T01:26:21.271Z,515.83
2022-11-02T01:26:31.273Z,515.76
2022-11-02T01:26:41.275Z,515.82
2022-11-02T01:26:51.274Z,515.66
2022-11-02T01:27:01.275Z,515.59
2022-11-02T01:27:11.274Z,515.62
2022-11-02T01:27:21.287Z,515.57
2022-11-02T01:27:31.276Z,515.63
2022-11-02T01:27:41.278Z,515.73
2022-11-02T01:27:51.279Z,515.61
2022-11-02T01:28:01.627Z,515.62
2022-11-02T01:28:11.280Z,515.59
2022-11-02T01:28:21.280Z,515.52
2022-11-02T01:28:31.282Z,515.58
2022-11-02T01:28:41.282Z,515.58
2022-11-02T01:28:51.288Z,515.60
2022-11-02T01:29:01.289Z,515.51
2022-11-02T01:29:11.291Z,515.59
2022-11-02T01:29:21.288Z,515.55
2022-11-02T01:29:31.286Z,515.59
2022-11-02T01:29:41.287Z,515.54
2022-11-02T01:29:51.288Z,515.42
2022-11-02T01:30:01.290Z,515.46
2022-11-02T01:30:11.288Z,515.63
2022-11-02T01:30:21.290Z,515.52
2022-11-02T01:30:31.290Z,515.53
2022-11-02T01:30:41.293Z,515.57
2022-11-02T01:30:51.294Z,515.58
2022-11-02T01:31:01.294Z,515.77
2022-11-02T01:31:11.298Z,515.96
2022-11-02T01:31:21.298Z,515.79
2022-11-02T01:31:31.298Z,515.52
2022-11-02T01:31:41.301Z,515.57
2022-11-02T01:31:51.298Z,515.71
2022-11-02T01:32:01.300Z,515.50
2022-11-02T01:32:11.328Z,515.47
2022-11-02T01:32:21.318Z,515.42
2022-11-02T01:32:31.303Z,515.40
2022-11-02T01:32:41.305Z,515.30
2022-11-02T01:32:51.304Z,515.29
2022-11-02T01:33:01.305Z,515.20
2022-11-02T01:33:11.306Z,515.37
2022-11-02T01:33:21.308Z,515.27
2022-11-02T01:33:31.309Z,515.45
2022-11-02T01:33:41.311Z,515.37
2022-11-02T01:33:51.310Z,515.39
2022-11-02T01:34:01.310Z,515.55
2022-11-02T01:34:11.311Z,515.45
2022-11-02T01:34:21.317Z,515.58
2022-11-02T01:34:31.311Z,515.43
2022-11-02T01:34:41.313Z,515.50
2022-11-02T01:34:51.317Z,515.66
2022-11-02T01:35:01.316Z,515.57
2022-11-02T01:35:11.317Z,515.61
2022-11-02T01:35:21.316Z,515.73
2022-11-02T01:35:31.319Z,515.72
2022-11-02T01:35:41.319Z,515.77
2022-11-02T01:35:51.320Z,515.72
2022-11-02T01:36:01.322Z,515.46
2022-11-02T01:36:11.424Z,515.62
2022-11-02T01:36:31.325Z,515.60
2022-11-02T01:36:41.327Z,515.86
2022-11-02T01:36:51.325Z,516.01
2022-11-02T01:37:01.325Z,515.98
2022-11-02T01:37:11.326Z,515.98
2022-11-02T01:37:21.339Z,515.95
2022-11-02T01:37:31.327Z,515.82
2022-11-02T01:37:41.328Z,516.04
2022-11-02T01:37:51.331Z,516.03
2022-11-02T01:38:01.591Z,516.11
2022-11-02T01:38:11.330Z,516.16
2022-11-02T01:38:21.330Z,516.21
2022-11-02T01:38:31.330Z,515.99
2022-11-02T01:38:41.332Z,516.22
2022-11-02T01:38:51.330Z,515.99
2022-11-02T01:39:01.333Z,516.17
2022-11-02T01:39:11.334Z,516.44
2022-11-02T01:39:21.336Z,516.28
2022-11-02T01:39:31.336Z,516.14
2022-11-02T01:39:41.333Z,516.08
2022-11-02T01:39:51.336Z,516.18
2022-11-02T01:40:01.339Z,516.28
2022-11-02T01:40:11.339Z,516.23
2022-11-02T01:40:21.339Z,516.03
2022-11-02T01:40:31.340Z,516.16
2022-11-02T01:40:41.341Z,516.19
2022-11-02T01:40:51.342Z,516.19
2022-11-02T01:41:01.341Z,516.28
2022-11-02T01:41:11.347Z,516.42
2022-11-02T01:41:21.345Z,516.35
2022-11-02T01:41:31.345Z,516.56
2022-11-02T01:41:41.348Z,516.55
2022-11-02T01:41:51.347Z,516.49
2022-11-02T01:42:01.346Z,516.45
2022-11-02T01:42:11.348Z,516.40
2022-11-02T01:42:21.364Z,516.32
2022-11-02T01:42:31.350Z,516.43
2022-11-02T01:42:41.353Z,516.41
2022-11-02T01:42:51.351Z,516.49
2022-11-02T01:43:01.353Z,516.57
2022-11-02T01:43:11.352Z,516.68
2022-11-02T01:43:21.358Z,516.80
2022-11-02T01:43:31.355Z,516.81
2022-11-02T01:43:41.360Z,516.66
2022-11-02T01:43:51.356Z,516.72
2022-11-02T01:44:01.358Z,516.59
2022-11-02T01:44:11.361Z,516.79
2022-11-02T01:44:21.362Z,516.88
2022-11-02T01:44:31.365Z,516.75
2022-11-02T01:44:41.364Z,516.77
2022-11-02T01:44:51.361Z,516.90
2022-11-02T01:45:01.364Z,516.67
2022-11-02T01:45:11.365Z,516.72
2022-11-02T01:45:21.367Z,516.73
2022-11-02T01:45:31.365Z,516.70
2022-11-02T01:45:41.369Z,516.67
2022-11-02T01:45:51.369Z,516.68
2022-11-02T01:46:01.371Z,516.81
2022-11-02T01:46:11.371Z,516.93
2022-11-02T01:46:21.370Z,516.79
2022-11-02T01:46:31.371Z,517.03
2022-11-02T01:46:41.371Z,516.79
2022-11-02T01:46:51.371Z,516.86
2022-11-02T01:47:01.374Z,516.76
2022-11-02T01:47:11.373Z,516.69
2022-11-02T01:47:21.387Z,516.72
2022-11-02T01:47:31.379Z,516.81
2022-11-02T01:47:41.373Z,516.71
2022-11-02T01:47:51.375Z,516.70
2022-11-02T01:48:01.516Z,516.58
2022-11-02T01:48:11.378Z,516.53
2022-11-02T01:48:21.377Z,516.41
2022-11-02T01:48:31.378Z,516.44
2022-11-02T01:48:41.382Z,516.48
2022-11-02T01:48:51.381Z,516.34
2022-11-02T01:49:01.382Z,516.17
2022-11-02T01:49:11.380Z,516.34
2022-11-02T01:49:21.382Z,516.32
2022-11-02T01:49:31.382Z,516.33
2022-11-02T01:49:41.383Z,516.42
2022-11-02T01:49:51.387Z,516.34
2022-11-02T01:50:01.387Z,516.21
2022-11-02T01:50:11.396Z,516.21
2022-11-02T01:50:21.390Z,516.29
2022-11-02T01:50:31.389Z,516.34
2022-11-02T01:50:41.390Z,516.38
2022-11-02T01:50:51.392Z,516.47
2022-11-02T01:51:01.394Z,516.40
2022-11-02T01:51:11.393Z,516.32
2022-11-02T01:51:21.395Z,516.28
2022-11-02T01:51:31.396Z,516.37
2022-11-02T01:51:41.397Z,516.45
2022-11-02T01:51:51.398Z,516.49
2022-11-02T01:52:01.397Z,516.32
2022-11-02T01:52:11.399Z,516.23
2022-11-02T01:52:21.458Z,516.23
2022-11-02T01:52:31.401Z,516.35
2022-11-02T01:52:41.443Z,516.31
2022-11-02T01:52:51.402Z,516.29
2022-11-02T01:53:01.402Z,516.42
2022-11-02T01:53:11.404Z,516.41
2022-11-02T01:53:21.404Z,516.32
2022-11-02T01:53:31.409Z,516.29
2022-11-02T01:53:41.389Z,516.32
2022-11-02T01:53:51.408Z,516.30
2022-11-02T01:54:01.410Z,516.29
2022-11-02T01:54:11.409Z,516.22
2022-11-02T01:54:21.411Z,516.15
2022-11-02T01:54:31.413Z,516.28
2022-11-02T01:54:41.412Z,516.24
2022-11-02T01:54:51.413Z,516.08
2022-11-02T01:55:01.396Z,516.15
2022-11-02T01:55:11.416Z,516.16
2022-11-02T01:55:21.414Z,516.08
2022-11-02T01:55:31.415Z,516.01
2022-11-02T01:55:41.418Z,516.14
2022-11-02T01:55:51.419Z,516.17
2022-11-02T01:56:01.416Z,516.13
2022-11-02T01:56:11.473Z,516.11
2022-11-02T01:56:31.427Z,516.18
2022-11-02T01:56:41.421Z,516.16
2022-11-02T01:56:51.421Z,516.09
2022-11-02T01:57:01.422Z,516.07
2022-11-02T01:57:11.424Z,516.11
2022-11-02T01:57:21.425Z,516.25
2022-11-02T01:57:31.431Z,516.09
2022-11-02T01:57:41.430Z,515.88
2022-11-02T01:57:51.429Z,515.94
2022-11-02T01:58:01.550Z,516.04
2022-11-02T01:58:11.430Z,516.01
2022-11-02T01:58:21.431Z,516.16
2022-11-02T01:58:31.432Z,516.23
2022-11-02T01:58:41.435Z,516.24
2022-11-02T01:58:51.431Z,516.23
2022-11-02T01:59:01.437Z,516.29
2022-11-02T01:59:11.416Z,516.17
2022-11-02T01:59:21.435Z,516.49
2022-11-02T01:59:31.437Z,516.52
2022-11-02T01:59:41.438Z,516.68
2022-11-02T01:59:51.437Z,516.69
2022-11-02T02:00:01.444Z,516.70
2022-11-02T02:00:11.440Z,516.75
2022-11-02T02:00:21.443Z,516.86
2022-11-02T02:00:31.440Z,516.99
2022-11-02T02:00:41.467Z,517.02
2022-11-02T02:00:51.425Z,517.02
2022-11-02T02:01:01.450Z,516.86
2022-11-02T02:01:11.460Z,516.94
2022-11-02T02:01:21.612Z,517.20
2022-11-02T02:01:31.576Z,517.10
2022-11-02T02:01:41.613Z,517.36
2022-11-02T02:01:51.527Z,517.28
2022-11-02T02:02:01.565Z,517.23
2022-11-02T02:02:11.547Z,517.43
2022-11-02T02:02:21.605Z,517.49
2022-11-02T02:02:31.595Z,517.38
2022-11-02T02:02:41.550Z,517.55
2022-11-02T02:02:51.496Z,517.63
2022-11-02T02:03:01.456Z,517.76
2022-11-02T02:03:11.454Z,517.67
2022-11-02T02:03:21.470Z,517.62
2022-11-02T02:03:31.456Z,517.59
2022-11-02T02:03:41.457Z,517.54
2022-11-02T02:03:51.459Z,517.64
2022-11-02T02:04:01.459Z,517.81
2022-11-02T02:04:11.459Z,517.77
2022-11-02T02:04:21.460Z,517.76
2022-11-02T02:04:31.461Z,517.80
2022-11-02T02:04:41.463Z,517.60
2022-11-02T02:04:51.461Z,517.66
2022-11-02T02:05:01.462Z,517.74
2022-11-02T02:05:11.463Z,517.71